Time;durP1;ratioP1;P1;durP2;ratioP2;P2;SDS_P1;SDS_P2;PMS_P1;PMS_P2;Temp;Humidity;BMP_temperature;BMP_pressure;BME280_temperature;BME280_humidity;BME280_pressure;Samples;Min_cycle;Max_cycle;Signal;HPM_P1;HPM_P2
2022/06/28 00:02:25;;;;;;;14.43;13.03;;;13.30;99.90;;;;;;5038314;28;20202;-68
2022/06/28 00:04:50;;;;;;;16.53;13.87;;;13.30;99.90;;;;;;5029463;28;20261;-67
2022/06/28 00:07:16;;;;;;;16.60;13.37;;;13.30;99.90;;;;;;5038633;28;20201;-68
2022/06/28 00:09:42;;;;;;;18.50;11.77;;;13.30;99.90;;;;;;5050996;28;20266;-67
2022/06/28 00:12:08;;;;;;;13.57;12.47;;;13.30;99.90;;;;;;5043415;28;20168;-67
2022/06/28 00:17:18;;;;;;;13.60;12.10;;;13.30;99.90;;;;;;5038746;28;20186;-68
2022/06/28 00:19:44;;;;;;;12.27;11.27;;;13.30;99.90;;;;;;5047278;28;20171;-67
2022/06/28 00:22:10;;;;;;;18.13;11.73;;;13.30;99.90;;;;;;5030754;28;20229;-67
2022/06/28 00:24:36;;;;;;;12.40;11.30;;;13.30;99.90;;;;;;5031649;28;20637;-67
2022/06/28 00:27:01;;;;;;;14.27;10.90;;;13.30;99.90;;;;;;5030969;28;20167;-67
2022/06/28 00:29:27;;;;;;;11.93;10.83;;;13.30;99.90;;;;;;5039069;28;20540;-67
2022/06/28 00:31:53;;;;;;;13.13;11.73;;;13.30;99.90;;;;;;5050747;28;20202;-67
2022/06/28 00:34:18;;;;;;;13.43;12.03;;;13.30;99.90;;;;;;5043363;28;20274;-67
2022/06/28 00:36:44;;;;;;;13.03;11.83;;;13.30;99.90;;;;;;5032948;28;20213;-67
2022/06/28 00:39:10;;;;;;;13.23;11.97;;;13.20;99.90;;;;;;5039147;28;20175;-67
2022/06/28 00:41:37;;;;;;;12.60;11.50;;;13.30;99.90;;;;;;5054229;28;20174;-67
2022/06/28 00:44:03;;;;;;;12.17;10.77;;;13.20;99.90;;;;;;5050406;28;20195;-67
2022/06/28 00:46:30;;;;;;;13.07;11.90;;;13.20;99.90;;;;;;5034095;28;20210;-67
2022/06/28 00:48:56;;;;;;;13.73;12.23;;;13.10;99.90;;;;;;5035862;28;20172;-67
2022/06/28 00:51:24;;;;;;;12.07;10.97;;;13.20;99.90;;;;;;5053810;28;20652;-67
2022/06/28 00:53:50;;;;;;;13.57;12.17;;;13.20;99.90;;;;;;5053310;28;20186;-67
2022/06/28 00:56:16;;;;;;;12.80;11.37;;;13.10;99.90;;;;;;5014179;28;20226;-67
2022/06/28 00:58:41;;;;;;;15.03;10.60;;;13.10;99.90;;;;;;5014190;28;20164;-67
2022/06/28 01:01:07;;;;;;;11.87;10.47;;;13.10;99.90;;;;;;5050924;28;20745;-67
2022/06/28 01:03:33;;;;;;;11.50;10.50;;;13.00;99.90;;;;;;5053636;28;20226;-67
2022/06/28 01:05:58;;;;;;;12.40;11.10;;;13.00;99.90;;;;;;5037154;28;20219;-67
2022/06/28 01:08:25;;;;;;;10.93;9.93;;;13.00;99.90;;;;;;5032438;28;20186;-67
2022/06/28 01:10:51;;;;;;;11.50;10.50;;;13.00;99.90;;;;;;5048193;28;20206;-67
2022/06/28 01:13:17;;;;;;;11.93;10.87;;;13.00;99.90;;;;;;5053602;28;20191;-67
2022/06/28 01:15:43;;;;;;;13.00;10.73;;;13.00;99.90;;;;;;5040463;28;20725;-67
2022/06/28 01:18:10;;;;;;;11.50;10.00;;;13.00;99.90;;;;;;5033676;28;20164;-67
2022/06/28 01:20:36;;;;;;;11.73;10.73;;;13.00;99.90;;;;;;5044566;28;20175;-67
2022/06/28 01:23:02;;;;;;;11.40;10.17;;;13.00;99.90;;;;;;5053208;28;20215;-67
2022/06/28 01:25:28;;;;;;;12.20;9.70;;;12.90;99.90;;;;;;5044414;28;20662;-67
2022/06/28 01:27:55;;;;;;;16.17;10.23;;;12.90;99.90;;;;;;5032143;28;20180;-67
2022/06/28 01:30:21;;;;;;;11.90;9.47;;;12.80;99.90;;;;;;5039485;28;20202;-67
2022/06/28 01:32:49;;;;;;;10.67;9.77;;;12.80;99.90;;;;;;5051835;28;20545;-67
2022/06/28 01:35:15;;;;;;;14.70;9.60;;;12.80;99.90;;;;;;5046202;28;20174;-67
2022/06/28 01:37:41;;;;;;;16.50;9.77;;;12.80;99.90;;;;;;5032022;28;20171;-67
2022/06/28 01:40:07;;;;;;;11.83;10.40;;;12.70;99.90;;;;;;5037383;28;20545;-67
2022/06/28 01:42:33;;;;;;;11.07;10.03;;;12.60;99.90;;;;;;5052883;28;20412;-67
2022/06/28 01:45:00;;;;;;;11.47;10.47;;;12.60;99.90;;;;;;5048820;28;20667;-67
2022/06/28 01:47:29;;;;;;;12.67;10.80;;;12.60;99.90;;;;;;5032598;28;20176;-67
2022/06/28 01:49:54;;;;;;;13.57;11.73;;;12.50;99.90;;;;;;5034133;28;20254;-67
2022/06/28 01:52:21;;;;;;;12.40;10.70;;;12.50;99.90;;;;;;5052741;28;20328;-67
2022/06/28 01:54:47;;;;;;;11.37;10.27;;;12.50;99.90;;;;;;5052450;28;20170;-67
2022/06/28 01:57:14;;;;;;;12.93;11.03;;;12.50;99.90;;;;;;5033305;28;20175;-67
2022/06/28 01:59:40;;;;;;;11.63;10.50;;;12.50;99.90;;;;;;5032972;28;20176;-67
2022/06/28 02:02:07;;;;;;;17.20;11.83;;;12.50;99.90;;;;;;5032872;28;20179;-67
2022/06/28 02:04:33;;;;;;;15.17;11.57;;;12.40;99.90;;;;;;5032457;28;20537;-67
2022/06/28 02:06:59;;;;;;;12.93;11.63;;;12.40;99.90;;;;;;5047822;28;20183;-67
2022/06/28 02:09:25;;;;;;;10.93;10.03;;;12.40;99.90;;;;;;5052360;28;20171;-67
2022/06/28 02:11:52;;;;;;;14.67;11.70;;;12.30;99.90;;;;;;5035678;28;20210;-67
2022/06/28 02:14:18;;;;;;;15.30;12.13;;;12.30;99.90;;;;;;5032049;28;20206;-67
2022/06/28 02:16:44;;;;;;;14.83;11.57;;;12.30;99.90;;;;;;5046114;28;20183;-67
2022/06/28 02:19:11;;;;;;;18.23;12.33;;;12.30;99.90;;;;;;5047050;28;20171;-67
2022/06/28 02:21:42;;;;;;;15.53;11.63;;;12.30;99.90;;;;;;5032367;28;20167;-67
2022/06/28 02:24:09;;;;;;;13.33;10.93;;;12.30;99.90;;;;;;5034865;28;20656;-67
2022/06/28 02:26:36;;;;;;;12.67;11.50;;;12.30;99.90;;;;;;5050856;28;20171;-67
2022/06/28 02:29:04;;;;;;;11.53;10.27;;;12.30;99.90;;;;;;5049140;28;20178;-67
2022/06/28 02:31:29;;;;;;;18.27;11.33;;;12.30;99.90;;;;;;5032018;28;20211;-67
2022/06/28 02:33:56;;;;;;;14.13;11.40;;;12.30;99.90;;;;;;5032405;28;20660;-67
2022/06/28 02:41:46;;;;;;;21.13;13.47;;;12.20;99.90;;;;;;5032193;28;20183;-67
2022/06/28 02:44:12;;;;;;;13.50;11.97;;;12.20;99.90;;;;;;5036446;28;20682;-67
2022/06/28 02:46:38;;;;;;;13.07;11.90;;;12.20;99.90;;;;;;5052157;28;20257;-67
2022/06/28 02:49:04;;;;;;;16.83;12.10;;;12.20;99.90;;;;;;5039458;28;20262;-67
2022/06/28 02:51:30;;;;;;;15.97;11.57;;;12.20;99.90;;;;;;5031688;28;20215;-67
2022/06/28 02:53:55;;;;;;;12.13;10.93;;;12.10;99.90;;;;;;5032555;28;20684;-67
2022/06/28 02:56:21;;;;;;;13.83;11.33;;;12.10;99.90;;;;;;5031758;28;20198;-67
2022/06/28 02:58:47;;;;;;;21.07;12.80;;;12.20;99.90;;;;;;5039614;28;20633;-67
2022/06/28 03:01:13;;;;;;;13.17;11.17;;;12.10;99.90;;;;;;5051180;28;20201;-67
2022/06/28 03:03:39;;;;;;;13.50;10.80;;;12.10;99.90;;;;;;5042734;28;20210;-67
2022/06/28 03:06:05;;;;;;;24.37;10.73;;;12.10;99.90;;;;;;5031788;28;20179;-67
2022/06/28 03:08:31;;;;;;;12.73;10.87;;;12.10;99.90;;;;;;5036883;28;20171;-67
2022/06/28 03:10:57;;;;;;;13.47;10.80;;;12.10;99.90;;;;;;5051485;28;20563;-67
2022/06/28 03:13:23;;;;;;;11.90;10.80;;;12.00;99.90;;;;;;5047130;28;20202;-70
2022/06/28 03:15:48;;;;;;;15.37;12.30;;;12.00;99.90;;;;;;5030360;28;20645;-67
2022/06/28 03:18:14;;;;;;;15.17;13.37;;;12.00;99.90;;;;;;5047537;28;20177;-67
2022/06/28 03:20:40;;;;;;;14.57;11.93;;;12.00;99.90;;;;;;5051486;28;20179;-67
2022/06/28 03:23:06;;;;;;;14.40;12.90;;;12.10;99.90;;;;;;5035158;28;20215;-67
2022/06/28 03:25:32;;;;;;;16.50;13.30;;;12.10;99.90;;;;;;5033467;28;20232;-66
2022/06/28 03:27:57;;;;;;;17.87;12.43;;;12.10;99.90;;;;;;5050143;28;20600;-66
2022/06/28 03:30:23;;;;;;;15.33;12.90;;;12.10;99.90;;;;;;5049066;28;20881;-66
2022/06/28 03:32:49;;;;;;;18.13;12.97;;;12.10;99.90;;;;;;5030279;28;20548;-66
2022/06/28 03:35:14;;;;;;;13.87;12.47;;;12.10;99.90;;;;;;5029630;28;20179;-67
2022/06/28 03:37:40;;;;;;;14.17;12.63;;;12.00;99.90;;;;;;5050193;28;20174;-67
2022/06/28 03:40:06;;;;;;;16.07;12.87;;;12.00;99.90;;;;;;5051134;28;20170;-67
2022/06/28 03:42:32;;;;;;;14.87;13.37;;;12.00;99.90;;;;;;5049601;28;20198;-67
2022/06/28 03:44:57;;;;;;;13.90;12.53;;;12.00;99.90;;;;;;5050986;28;20254;-67
2022/06/28 03:47:23;;;;;;;15.57;12.53;;;12.00;99.90;;;;;;5032797;28;20672;-67
2022/06/28 03:49:49;;;;;;;14.23;11.77;;;12.00;99.90;;;;;;5029865;28;20186;-67
2022/06/28 03:52:15;;;;;;;13.90;12.40;;;12.00;99.90;;;;;;5048330;28;20282;-67
2022/06/28 03:54:41;;;;;;;12.07;10.70;;;12.00;99.90;;;;;;5050787;28;20159;-67
2022/06/28 03:57:07;;;;;;;15.47;11.37;;;12.00;99.90;;;;;;5032396;28;20175;-68
2022/06/28 03:59:33;;;;;;;18.70;11.70;;;12.10;99.90;;;;;;5029807;28;20172;-67
2022/06/28 04:01:58;;;;;;;12.97;10.83;;;12.10;99.90;;;;;;5046216;28;20189;-67
2022/06/28 04:04:24;;;;;;;12.80;11.60;;;12.10;99.90;;;;;;5050661;28;20187;-67
2022/06/28 04:06:49;;;;;;;12.77;11.40;;;12.10;99.90;;;;;;5049495;28;20179;-67
2022/06/28 04:09:16;;;;;;;14.70;11.83;;;12.10;99.90;;;;;;5050812;28;20186;-67
2022/06/28 04:11:42;;;;;;;11.97;10.73;;;12.10;99.90;;;;;;5041232;28;20211;-67
2022/06/28 04:14:13;;;;;;;15.20;11.47;;;12.10;99.90;;;;;;5034426;28;20244;-67
2022/06/28 04:16:40;;;;;;;14.37;11.00;;;12.20;99.90;;;;;;5045733;28;20181;-67
2022/06/28 04:19:05;;;;;;;11.37;10.40;;;12.20;99.90;;;;;;5047869;28;20167;-67
2022/06/28 04:21:31;;;;;;;12.77;10.57;;;12.30;99.90;;;;;;5034584;28;20186;-67
2022/06/28 04:23:56;;;;;;;15.13;10.73;;;12.40;99.90;;;;;;5070452;22;20288;-66
2022/06/28 04:26:22;;;;;;;15.87;11.77;;;12.60;99.90;;;;;;5057104;28;20175;-67
2022/06/28 04:28:48;;;;;;;12.87;11.67;;;12.90;99.90;;;;;;5053170;28;20176;-66
2022/06/28 04:31:15;;;;;;;10.87;10.00;;;13.30;99.90;;;;;;5036061;28;20204;-66
2022/06/28 04:33:41;;;;;;;19.13;10.73;;;13.60;99.90;;;;;;5037255;28;20241;-66
2022/06/28 04:36:07;;;;;;;11.93;10.03;;;13.80;99.90;;;;;;5055588;28;20175;-66
2022/06/28 04:38:32;;;;;;;10.23;9.43;;;14.10;99.90;;;;;;5054985;28;20175;-66
2022/06/28 04:40:58;;;;;;;11.40;10.43;;;14.40;99.90;;;;;;5055149;28;20171;-67
2022/06/28 04:43:24;;;;;;;16.60;15.53;;;14.80;99.90;;;;;;5054367;28;20194;-65
2022/06/28 04:45:50;;;;;;;10.67;9.87;;;15.20;99.90;;;;;;5054470;28;20171;-65
2022/06/28 04:48:15;;;;;;;12.77;11.67;;;15.50;99.90;;;;;;5054207;28;20185;-66
2022/06/28 04:50:41;;;;;;;10.57;9.67;;;15.80;99.90;;;;;;5054238;28;20206;-67
2022/06/28 04:53:07;;;;;;;12.40;8.03;;;16.20;99.90;;;;;;5054049;28;20707;-66
2022/06/28 04:55:32;;;;;;;12.40;8.70;;;16.50;99.90;;;;;;5053991;28;20171;-66
2022/06/28 04:57:58;;;;;;;7.07;6.60;;;16.80;99.90;;;;;;5054224;28;20258;-67
2022/06/28 05:00:23;;;;;;;8.10;7.40;;;17.10;99.90;;;;;;5054038;28;20178;-67
2022/06/28 05:02:49;;;;;;;7.33;6.47;;;17.20;99.90;;;;;;5053914;28;20187;-67
2022/06/28 05:05:15;;;;;;;6.40;5.80;;;17.50;99.90;;;;;;5053286;28;20549;-66
2022/06/28 05:07:40;;;;;;;6.40;5.80;;;17.70;99.90;;;;;;5053838;28;20217;-67
2022/06/28 05:10:07;;;;;;;6.00;5.60;;;17.90;99.90;;;;;;5053800;28;20203;-67
2022/06/28 05:12:32;;;;;;;9.43;5.90;;;18.00;99.90;;;;;;5053719;28;20178;-65
2022/06/28 05:14:58;;;;;;;6.27;5.80;;;18.10;99.90;;;;;;5053142;28;20640;-68
2022/06/28 05:17:24;;;;;;;8.97;5.60;;;18.30;99.90;;;;;;5053523;28;20187;-67
2022/06/28 05:19:50;;;;;;;9.57;5.17;;;18.70;99.90;;;;;;5053590;28;20558;-65
2022/06/28 05:22:16;;;;;;;7.90;5.43;;;18.90;99.90;;;;;;5052688;28;20173;-65
2022/06/28 05:24:41;;;;;;;6.13;5.60;;;19.00;99.90;;;;;;5052804;28;20203;-66
2022/06/28 05:27:07;;;;;;;8.10;5.53;;;19.00;99.90;;;;;;5035435;28;20170;-65
2022/06/28 05:29:33;;;;;;;6.37;5.67;;;18.80;99.90;;;;;;5053018;28;20179;-65
2022/06/28 05:31:59;;;;;;;5.07;4.70;;;18.60;99.90;;;;;;5052338;28;20221;-65
2022/06/28 05:34:25;;;;;;;7.47;5.20;;;18.50;99.90;;;;;;5052661;28;20249;-65
2022/06/28 05:36:51;;;;;;;6.27;5.67;;;18.50;99.90;;;;;;5053215;28;20177;-65
2022/06/28 05:39:16;;;;;;;6.70;6.13;;;18.40;99.90;;;;;;5052917;28;20183;-65
2022/06/28 05:41:42;;;;;;;6.77;6.17;;;18.40;99.90;;;;;;5053158;28;20175;-65
2022/06/28 05:44:10;;;;;;;6.60;6.20;;;18.40;99.90;;;;;;5052528;28;20206;-66
2022/06/28 05:46:36;;;;;;;5.73;5.23;;;18.40;99.90;;;;;;5053126;28;20163;-66
2022/06/28 05:49:01;;;;;;;5.97;5.57;;;18.50;99.90;;;;;;5052782;28;20186;-65
2022/06/28 05:51:29;;;;;;;5.87;5.30;;;18.80;99.90;;;;;;5053114;28;20500;-65
2022/06/28 05:53:55;;;;;;;5.70;5.30;;;19.10;99.90;;;;;;5052505;28;20237;-65
2022/06/28 05:56:21;;;;;;;6.10;5.70;;;19.40;99.90;;;;;;5053021;28;20171;-65
2022/06/28 05:58:46;;;;;;;7.70;7.10;;;19.70;99.90;;;;;;5034078;28;20241;-66
2022/06/28 06:01:12;;;;;;;8.67;7.80;;;19.90;99.90;;;;;;5052660;28;20236;-66
2022/06/28 06:03:38;;;;;;;8.83;8.00;;;19.90;99.90;;;;;;5052091;28;20203;-66
2022/06/28 06:06:04;;;;;;;7.67;7.13;;;20.00;99.90;;;;;;5072493;28;20198;-66
2022/06/28 06:08:29;;;;;;;7.43;6.40;;;20.10;99.90;;;;;;5053277;28;20239;-65
2022/06/28 06:10:55;;;;;;;8.13;7.73;;;20.30;99.90;;;;;;5052543;28;20199;-65
2022/06/28 06:13:21;;;;;;;9.30;8.37;;;20.40;99.90;;;;;;5052263;28;20213;-65
2022/06/28 06:15:46;;;;;;;7.60;7.10;;;20.60;99.90;;;;;;5052429;28;20716;-66
2022/06/28 06:18:12;;;;;;;6.30;5.60;;;20.90;99.90;;;;;;5052021;28;20213;-65
2022/06/28 06:20:37;;;;;;;5.30;4.83;;;21.20;99.90;;;;;;5052046;28;20202;-65
2022/06/28 06:23:03;;;;;;;5.70;5.30;;;21.50;99.90;;;;;;5052360;28;20573;-65
2022/06/28 06:25:29;;;;;;;5.30;4.87;;;21.60;99.90;;;;;;5051719;28;20275;-65
2022/06/28 06:27:54;;;;;;;8.77;5.10;;;21.60;99.90;;;;;;5034225;28;20185;-65
2022/06/28 06:30:20;;;;;;;4.75;4.13;;;21.50;99.90;;;;;;5051594;28;20582;-66
2022/06/28 06:32:45;;;;;;;4.50;4.20;;;21.80;99.90;;;;;;5033659;28;20243;-66
2022/06/28 06:35:11;;;;;;;5.28;4.10;;;22.00;99.90;;;;;;5051212;28;20171;-66
2022/06/28 06:37:37;;;;;;;6.20;4.40;;;22.20;99.90;;;;;;5052161;28;20187;-66
2022/06/28 06:40:04;;;;;;;7.85;4.18;;;22.40;99.90;;;;;;5052463;28;20195;-65
2022/06/28 06:42:29;;;;;;;4.22;3.83;;;22.80;99.90;;;;;;5051253;28;20265;-65
2022/06/28 06:44:56;;;;;;;4.00;3.80;;;23.00;99.90;;;;;;5033933;28;20599;-66
2022/06/28 06:47:22;;;;;;;4.90;4.40;;;23.30;99.90;;;;;;5031795;28;20175;-66
2022/06/28 06:49:48;;;;;;;5.53;3.90;;;23.50;99.90;;;;;;5031058;28;20266;-65
2022/06/28 06:52:13;;;;;;;4.70;3.97;;;23.80;99.90;;;;;;5041827;28;20179;-66
2022/06/28 06:54:39;;;;;;;8.40;4.22;;;24.10;99.90;;;;;;5051325;28;20197;-65
2022/06/28 06:57:05;;;;;;;6.75;4.32;;;24.20;99.90;;;;;;5051315;28;20178;-65
2022/06/28 06:59:30;;;;;;;4.25;3.95;;;24.30;99.90;;;;;;5051294;28;20652;-65
2022/06/28 07:01:56;;;;;;;4.85;3.58;;;24.50;99.90;;;;;;5051649;28;20163;-66
2022/06/28 07:04:22;;;;;;;3.83;3.53;;;24.60;99.90;;;;;;5051022;28;20243;-66
2022/06/28 07:06:47;;;;;;;3.65;3.35;;;24.80;99.90;;;;;;5051381;28;20644;-66
2022/06/28 07:09:13;;;;;;;3.75;3.40;;;25.10;99.90;;;;;;5051069;28;20178;-66
2022/06/28 07:11:39;;;;;;;4.00;3.58;;;25.30;99.90;;;;;;5052823;28;20281;-67
2022/06/28 07:14:04;;;;;;;4.18;3.80;;;25.10;99.90;;;;;;5052301;28;20276;-67
2022/06/28 07:16:30;;;;;;;6.20;4.18;;;24.60;99.90;;;;;;5035443;28;20544;-67
2022/06/28 07:18:56;;;;;;;4.38;4.07;;;24.60;99.90;;;;;;5052771;28;20664;-66
2022/06/28 07:21:23;;;;;;;6.97;3.85;;;24.80;99.90;;;;;;5052444;28;20167;-67
2022/06/28 07:23:48;;;;;;;4.03;3.53;;;25.40;99.90;;;;;;5051675;28;20211;-66
2022/06/28 07:26:16;;;;;;;4.30;3.45;;;25.70;99.90;;;;;;5052296;28;20262;-67
2022/06/28 07:28:41;;;;;;;5.18;3.45;;;26.00;99.90;;;;;;5052781;28;20201;-67
2022/06/28 07:31:07;;;;;;;3.60;3.30;;;25.90;99.90;;;;;;5052242;28;20198;-66
2022/06/28 07:33:33;;;;;;;3.85;3.33;;;25.90;99.90;;;;;;5052194;28;20205;-66
2022/06/28 07:35:59;;;;;;;5.13;3.50;;;26.20;99.90;;;;;;5050117;28;20180;-66
2022/06/28 07:38:25;;;;;;;3.60;3.30;;;26.50;99.90;;;;;;5052596;28;20175;-66
2022/06/28 07:40:51;;;;;;;4.70;3.45;;;26.70;99.90;;;;;;5053219;28;20651;-65
2022/06/28 07:43:16;;;;;;;3.60;3.30;;;27.00;99.90;;;;;;5052693;28;20206;-66
2022/06/28 07:45:44;;;;;;;5.03;3.92;;;27.20;99.90;;;;;;5055043;28;20324;-67
2022/06/28 07:48:09;;;;;;;5.15;3.38;;;27.30;99.90;;;;;;5056919;28;20178;-67
2022/06/28 07:53:34;;;;;;;4.63;3.25;;;27.60;99.90;;;;;;5022208;28;20672;-66
2022/06/28 07:56:00;;;;;;;3.42;3.13;;;27.90;99.90;;;;;;5055452;28;20175;-67
2022/06/28 07:58:25;;;;;;;4.45;3.50;;;28.20;99.90;;;;;;5055748;28;20174;-67
2022/06/28 08:00:51;;;;;;;3.60;3.20;;;27.80;99.90;;;;;;5056422;28;20180;-66
2022/06/28 08:03:17;;;;;;;3.63;3.30;;;27.90;99.90;;;;;;5055785;28;20194;-67
2022/06/28 08:05:42;;;;;;;3.28;2.97;;;27.30;99.90;;;;;;5055889;28;20214;-67
2022/06/28 08:08:08;;;;;;;4.70;3.50;;;27.30;99.90;;;;;;5056286;28;20173;-67
2022/06/28 08:10:34;;;;;;;6.30;3.33;;;27.60;99.90;;;;;;5056056;28;20205;-67
2022/06/28 08:13:00;;;;;;;5.60;3.50;;;27.60;99.90;;;;;;5055802;28;20186;-66
2022/06/28 08:15:25;;;;;;;3.17;2.97;;;27.70;99.90;;;;;;5055367;28;20175;-67
2022/06/28 08:17:51;;;;;;;3.22;2.90;;;28.00;99.90;;;;;;5055689;28;20596;-67
2022/06/28 08:20:17;;;;;;;4.78;2.97;;;27.90;99.90;;;;;;5054630;28;20186;-67
2022/06/28 08:22:42;;;;;;;4.75;3.60;;;27.20;99.90;;;;;;5054213;28;20673;-66
2022/06/28 08:25:08;;;;;;;3.55;3.22;;;27.10;99.90;;;;;;5054768;28;20270;-66
2022/06/28 08:27:34;;;;;;;3.30;3.10;;;27.20;99.90;;;;;;5055489;28;20236;-66
2022/06/28 08:30:00;;;;;;;3.20;3.00;;;27.60;99.90;;;;;;5044351;28;20175;-66
2022/06/28 08:32:25;;;;;;;5.43;3.33;;;27.80;99.90;;;;;;5035346;28;20201;-67
2022/06/28 08:34:51;;;;;;;4.25;2.90;;;28.00;99.90;;;;;;5049936;28;20229;-67
2022/06/28 08:37:17;;;;;;;3.70;3.00;;;28.30;99.90;;;;;;5054514;28;20178;-66
2022/06/28 08:39:42;;;;;;;3.40;3.10;;;28.80;99.90;;;;;;5055311;28;20220;-66
2022/06/28 08:42:11;;;;;;;2.97;2.65;;;29.30;99.90;;;;;;5055360;28;20731;-67
2022/06/28 08:44:37;;;;;;;2.95;2.65;;;29.90;99.90;;;;;;5054028;28;20275;-66
2022/06/28 08:47:04;;;;;;;4.25;2.70;;;30.10;99.90;;;;;;5054995;28;20262;-66
2022/06/28 08:49:55;;;;;;;5.45;2.80;;;30.50;99.90;;;;;;5050975;28;20667;-67
2022/06/28 08:52:22;;;;;;;5.22;3.00;;;30.50;99.90;;;;;;5034826;28;20262;-66
2022/06/28 08:54:50;;;;;;;4.75;3.38;;;30.40;99.90;;;;;;5034747;28;20191;-67
2022/06/28 08:57:20;;;;;;;8.43;3.28;;;30.00;99.90;;;;;;5033815;28;20241;-67
2022/06/28 08:59:47;;;;;;;4.00;3.58;;;29.60;99.90;;;;;;5034908;28;20191;-67
2022/06/28 09:02:14;;;;;;;3.78;2.80;;;29.10;99.90;;;;;;5034881;28;20699;-66
2022/06/28 09:04:47;;;;;;;3.47;3.10;;;29.20;99.90;;;;;;5033344;28;20199;-66
2022/06/28 09:07:12;;;;;;;4.85;3.40;;;29.00;99.90;;;;;;5034769;28;20179;-68
2022/06/28 09:09:38;;;;;;;5.63;3.88;;;28.90;99.90;;;;;;5034680;28;20549;-68
2022/06/28 09:12:05;;;;;;;6.68;3.53;;;28.80;99.90;;;;;;5034648;28;20755;-66
2022/06/28 09:14:34;;;;;;;3.65;3.10;;;29.30;99.90;;;;;;5033984;28;20194;-66
2022/06/28 09:17:26;;;;;;;3.92;3.15;;;29.40;99.90;;;;;;5034638;28;20167;-67
2022/06/28 09:20:10;;;;;;;3.33;3.10;;;29.50;99.90;;;;;;5034303;28;20180;-67
2022/06/28 09:22:37;;;;;;;3.30;3.10;;;29.20;99.90;;;;;;5034135;28;20191;-66
2022/06/28 09:25:09;;;;;;;3.38;3.17;;;29.10;99.90;;;;;;5034142;28;20168;-66
2022/06/28 09:27:37;;;;;;;3.55;3.17;;;29.40;99.90;;;;;;5032860;28;20172;-66
2022/06/28 09:30:06;;;;;;;4.20;2.95;;;29.30;99.90;;;;;;5034353;28;20233;-66
2022/06/28 09:32:34;;;;;;;3.65;2.85;;;29.50;99.90;;;;;;5034249;28;20198;-67
2022/06/28 09:35:09;;;;;;;3.90;2.85;;;30.20;99.90;;;;;;5033756;28;20531;-67
2022/06/28 09:37:56;;;;;;;3.75;3.20;;;30.30;99.90;;;;;;5016196;28;20178;-66
2022/06/28 09:40:29;;;;;;;5.95;3.28;;;30.10;99.90;;;;;;5034262;28;20167;-66
2022/06/28 09:43:06;;;;;;;3.08;2.80;;;30.30;99.90;;;;;;5034249;28;20192;-66
2022/06/28 09:45:33;;;;;;;3.15;2.58;;;30.70;99.90;;;;;;5033303;28;20575;-65
2022/06/28 09:47:58;;;;;;;3.10;2.80;;;31.10;99.90;;;;;;5033879;28;20180;-65
2022/06/28 09:50:24;;;;;;;3.38;2.80;;;31.40;99.90;;;;;;5033659;28;20257;-65
2022/06/28 09:52:51;;;;;;;5.25;3.22;;;31.20;99.90;;;;;;5047001;28;20605;-66
2022/06/28 09:55:18;;;;;;;3.22;3.00;;;31.20;99.90;;;;;;5034506;28;20207;-67
2022/06/28 09:57:47;;;;;;;3.97;3.15;;;31.20;99.90;;;;;;5052764;28;20640;-66
2022/06/28 10:00:16;;;;;;;4.78;3.88;;;31.40;99.90;;;;;;5053051;28;20174;-67
2022/06/28 10:02:42;;;;;;;5.65;4.20;;;31.20;99.90;;;;;;5051863;28;20233;-67
2022/06/28 10:05:10;;;;;;;4.53;3.10;;;31.10;99.90;;;;;;5052805;28;20543;-67
2022/06/28 10:07:36;;;;;;;4.50;2.90;;;30.90;99.90;;;;;;5051430;28;20183;-67
2022/06/28 10:10:04;;;;;;;6.43;3.50;;;31.00;99.90;;;;;;5051000;28;20241;-67
2022/06/28 10:15:21;;;;;;;5.55;3.33;;;30.60;99.90;;;;;;5051030;28;20178;-67
2022/06/28 10:18:13;;;;;;;5.13;3.80;;;30.80;99.90;;;;;;5052482;28;20175;-66
2022/06/28 10:20:40;;;;;;;3.10;2.90;;;31.10;99.90;;;;;;5041637;28;20567;-67
2022/06/28 10:25:34;;;;;;;3.42;3.00;;;31.70;99.90;;;;;;5078297;28;20215;-68
2022/06/28 10:27:59;;;;;;;3.45;2.97;;;31.70;99.90;;;;;;5089842;28;20170;-68
2022/06/28 10:30:28;;;;;;;4.15;2.95;;;32.00;99.90;;;;;;5077890;28;20205;-68
2022/06/28 10:33:14;;;;;;;6.00;2.97;;;32.30;99.90;;;;;;5092265;28;20196;-65
2022/06/28 10:35:42;;;;;;;4.03;3.08;;;32.30;99.90;;;;;;5084207;28;20170;-68
2022/06/28 10:38:08;;;;;;;4.93;2.95;;;32.40;99.90;;;;;;5072302;28;20173;-69
2022/06/28 10:40:49;;;;;;;5.80;3.03;;;32.60;99.90;;;;;;5081780;28;20268;-69
2022/06/28 10:43:42;;;;;;;5.18;3.00;;;33.10;99.90;;;;;;5095024;28;20199;-70
2022/06/28 10:46:09;;;;;;;3.83;3.15;;;33.50;99.90;;;;;;5087710;28;20174;-69
2022/06/28 10:48:50;;;;;;;4.20;2.78;;;33.40;99.90;;;;;;5074877;28;20177;-69
2022/06/28 10:51:17;;;;;;;3.53;3.00;;;33.40;99.90;;;;;;5074766;28;20233;-69
2022/06/28 10:54:00;;;;;;;3.22;3.03;;;33.20;99.90;;;;;;5075320;28;20190;-70
2022/06/28 10:56:27;;;;;;;3.80;3.08;;;33.20;99.90;;;;;;5076082;28;20231;-69
2022/06/28 10:59:04;;;;;;;3.10;2.90;;;33.30;99.90;;;;;;5075132;28;20204;-69
2022/06/28 11:01:39;;;;;;;3.70;3.40;;;33.40;99.00;;;;;;5051561;28;20202;-67
2022/06/28 11:04:20;;;;;;;6.93;3.78;;;32.90;97.60;;;;;;5052017;28;20190;-69
2022/06/28 11:06:48;;;;;;;3.10;2.90;;;32.10;99.70;;;;;;5091800;28;20654;-69
2022/06/28 11:09:35;;;;;;;5.68;2.80;;;32.10;99.90;;;;;;5075354;28;20186;-68
2022/06/28 11:12:21;;;;;;;4.00;3.35;;;32.10;98.10;;;;;;5070295;28;20289;-68
2022/06/28 11:14:58;;;;;;;3.15;2.90;;;32.20;98.10;;;;;;5071443;28;20186;-69
2022/06/28 11:17:32;;;;;;;3.33;3.03;;;32.30;97.60;;;;;;5067744;28;20639;-69
2022/06/28 11:20:03;;;;;;;3.13;2.83;;;32.30;99.10;;;;;;5069403;28;20634;-69
2022/06/28 11:22:40;;;;;;;6.43;2.50;;;32.20;98.10;;;;;;5074909;28;20185;-68
2022/06/28 11:25:11;;;;;;;2.67;2.50;;;32.30;93.70;;;;;;5071039;28;20258;-69
2022/06/28 11:27:53;;;;;;;3.35;2.85;;;32.20;94.50;;;;;;5050056;28;20174;-69
2022/06/28 11:30:20;;;;;;;4.32;2.60;;;32.20;93.30;;;;;;5051285;28;20226;-66
2022/06/28 11:32:50;;;;;;;3.28;2.90;;;32.00;95.30;;;;;;5091536;28;20193;-67
2022/06/28 11:35:28;;;;;;;3.28;3.00;;;32.20;94.90;;;;;;5090894;28;20165;-67
2022/06/28 11:38:02;;;;;;;3.85;3.10;;;32.20;95.50;;;;;;5071186;28;20230;-68
2022/06/28 11:40:49;;;;;;;3.00;2.80;;;32.30;93.50;;;;;;5070749;28;20272;-68
2022/06/28 11:43:25;;;;;;;4.65;3.63;;;32.10;92.50;;;;;;5091064;28;20189;-67
2022/06/28 11:45:53;;;;;;;3.95;3.65;;;31.20;95.80;;;;;;5088067;28;20205;-66
2022/06/28 11:48:23;;;;;;;4.05;3.50;;;30.90;98.00;;;;;;5068784;28;20212;-67
2022/06/28 11:50:53;;;;;;;3.97;3.10;;;31.00;95.70;;;;;;5073134;28;20209;-68
2022/06/28 11:53:21;;;;;;;3.28;3.08;;;31.20;99.90;;;;;;5090811;28;20190;-67
2022/06/28 11:55:51;;;;;;;5.82;2.97;;;31.30;97.80;;;;;;5089843;28;20176;-67
2022/06/28 11:58:29;;;;;;;3.25;2.78;;;31.00;94.30;;;;;;5071181;28;20444;-68
2022/06/28 12:01:09;;;;;;;6.38;3.40;;;30.80;95.30;;;;;;5072321;28;20283;-68
2022/06/28 12:03:41;;;;;;;3.45;2.90;;;30.50;93.80;;;;;;5070674;28;20235;-68
2022/06/28 12:06:08;;;;;;;5.05;2.97;;;30.00;99.50;;;;;;5073324;28;20186;-68
2022/06/28 12:08:45;;;;;;;3.55;3.22;;;30.40;96.10;;;;;;5091298;28;20533;-67
2022/06/28 12:11:31;;;;;;;3.00;2.80;;;30.40;97.80;;;;;;5088426;28;20293;-68
2022/06/28 12:14:02;;;;;;;4.72;2.80;;;30.80;96.00;;;;;;5070487;28;20742;-68
2022/06/28 12:16:48;;;;;;;3.35;2.83;;;30.80;95.60;;;;;;5074591;28;20537;-68
2022/06/28 12:19:14;;;;;;;3.03;2.65;;;31.10;99.10;;;;;;5091033;28;20244;-68
2022/06/28 12:21:59;;;;;;;3.45;2.50;;;31.10;94.40;;;;;;5083536;28;20269;-68
2022/06/28 12:24:54;;;;;;;3.72;3.10;;;31.20;93.40;;;;;;5090487;28;20217;-68
2022/06/28 12:27:31;;;;;;;4.00;2.80;;;30.70;91.60;;;;;;5077610;28;20299;-66
2022/06/28 12:29:59;;;;;;;3.17;2.80;;;30.00;94.60;;;;;;5081998;28;20558;-68
2022/06/28 12:32:26;;;;;;;5.30;3.30;;;30.00;94.10;;;;;;5094113;28;20533;-67
2022/06/28 12:35:06;;;;;;;4.38;2.95;;;29.50;90.10;;;;;;5084133;28;20198;-68
2022/06/28 12:37:33;;;;;;;3.80;3.35;;;29.00;92.20;;;;;;5074151;28;20171;-68
2022/06/28 12:39:59;;;;;;;3.72;3.00;;;28.90;95.80;;;;;;5088205;28;20566;-68
2022/06/28 12:42:30;;;;;;;3.78;2.72;;;29.40;93.30;;;;;;5094331;28;20730;-69
2022/06/28 12:44:56;;;;;;;7.78;2.90;;;30.30;97.60;;;;;;5080399;28;20201;-68
2022/06/28 12:47:25;;;;;;;2.95;2.63;;;30.90;91.40;;;;;;5073824;28;20181;-69
2022/06/28 12:49:50;;;;;;;2.35;2.20;;;31.30;91.60;;;;;;5086243;28;20443;-68
2022/06/28 12:52:16;;;;;;;2.70;2.55;;;31.70;94.50;;;;;;5094048;28;20689;-68
2022/06/28 12:54:42;;;;;;;2.92;2.50;;;31.80;91.30;;;;;;5083736;28;20674;-68
2022/06/28 12:57:07;;;;;;;3.72;3.08;;;31.60;90.30;;;;;;5094132;28;20172;-67
2022/06/28 12:59:33;;;;;;;3.08;2.88;;;31.70;92.50;;;;;;5085390;28;20174;-66
2022/06/28 13:01:58;;;;;;;3.47;2.67;;;31.90;89.20;;;;;;5074076;28;20185;-68